sensor_id;sensor_type;location;lat;lon;timestamp;temperature;humidity
18189;DHT22;9219;50.396;8.546;2023-01-29T00:02:22;0.20;99.90
18189;DHT22;9219;50.396;8.546;2023-01-29T00:04:53;0.20;99.90
18189;DHT22;9219;50.396;8.546;2023-01-29T00:10:13;0.40;99.90
18189;DHT22;9219;50.396;8.546;2023-01-29T00:12:48;0.80;99.90
18189;DHT22;9219;50.396;8.546;2023-01-29T00:15:22;0.20;99.90
18189;DHT22;9219;50.396;8.546;2023-01-29T00:18:01;-0.10;99.90
18189;DHT22;9219;50.396;8.546;2023-01-29T00:20:30;0.20;99.90
18189;DHT22;9219;50.396;8.546;2023-01-29T00:22:57;-0.20;99.90
18189;DHT22;9219;50.396;8.546;2023-01-29T00:25:26;-0.30;99.90
18189;DHT22;9219;50.396;8.546;2023-01-29T00:32:26;0.00;99.90
18189;DHT22;9219;50.396;8.546;2023-01-29T00:34:54;0.40;99.90
18189;DHT22;9219;50.396;8.546;2023-01-29T00:37:21;0.40;99.90
18189;DHT22;9219;50.396;8.546;2023-01-29T00:39:48;0.60;99.90
18189;DHT22;9219;50.396;8.546;2023-01-29T00:42:15;0.60;99.90
18189;DHT22;9219;50.396;8.546;2023-01-29T00:45:00;0.80;99.90
18189;DHT22;9219;50.396;8.546;2023-01-29T00:47:29;0.60;99.90
18189;DHT22;9219;50.396;8.546;2023-01-29T00:54:17;0.30;99.90
18189;DHT22;9219;50.396;8.546;2023-01-29T00:56:45;0.50;99.90
18189;DHT22;9219;50.396;8.546;2023-01-29T00:59:12;0.40;99.90
18189;DHT22;9219;50.396;8.546;2023-01-29T01:01:39;0.30;99.90
18189;DHT22;9219;50.396;8.546;2023-01-29T01:04:39;0.40;99.90
18189;DHT22;9219;50.396;8.546;2023-01-29T01:07:07;0.50;99.90
18189;DHT22;9219;50.396;8.546;2023-01-29T01:12:19;0.50;99.90
18189;DHT22;9219;50.396;8.546;2023-01-29T01:14:46;0.40;99.90
18189;DHT22;9219;50.396;8.546;2023-01-29T01:17:14;0.30;99.90
18189;DHT22;9219;50.396;8.546;2023-01-29T01:19:42;0.40;99.90
18189;DHT22;9219;50.396;8.546;2023-01-29T01:22:10;0.20;99.90
18189;DHT22;9219;50.396;8.546;2023-01-29T01:24:38;0.20;99.90
18189;DHT22;9219;50.396;8.546;2023-01-29T01:27:05;0.30;99.90
18189;DHT22;9219;50.396;8.546;2023-01-29T01:33:47;0.20;99.90
18189;DHT22;9219;50.396;8.546;2023-01-29T01:36:14;0.20;99.90
18189;DHT22;9219;50.396;8.546;2023-01-29T01:38:44;0.30;99.90
18189;DHT22;9219;50.396;8.546;2023-01-29T01:41:12;0.30;99.90
18189;DHT22;9219;50.396;8.546;2023-01-29T01:43:52;0.30;99.90
18189;DHT22;9219;50.396;8.546;2023-01-29T01:46:20;0.30;99.90
18189;DHT22;9219;50.396;8.546;2023-01-29T01:54:02;0.30;99.90
18189;DHT22;9219;50.396;8.546;2023-01-29T01:56:32;0.30;99.90
18189;DHT22;9219;50.396;8.546;2023-01-29T01:59:08;0.30;99.90
18189;DHT22;9219;50.396;8.546;2023-01-29T02:01:37;0.50;99.90
18189;DHT22;9219;50.396;8.546;2023-01-29T02:04:10;0.80;99.90
18189;DHT22;9219;50.396;8.546;2023-01-29T02:06:58;0.90;99.90
18189;DHT22;9219;50.396;8.546;2023-01-29T02:14:45;0.50;99.90
18189;DHT22;9219;50.396;8.546;2023-01-29T02:17:14;0.70;99.90
18189;DHT22;9219;50.396;8.546;2023-01-29T02:19:47;0.50;99.90
18189;DHT22;9219;50.396;8.546;2023-01-29T02:22:33;0.20;99.90
18189;DHT22;9219;50.396;8.546;2023-01-29T02:31:02;0.00;99.90
18189;DHT22;9219;50.396;8.546;2023-01-29T02:34:17;0.40;99.90
18189;DHT22;9219;50.396;8.546;2023-01-29T02:36:51;0.10;99.90
18189;DHT22;9219;50.396;8.546;2023-01-29T02:39:29;-0.10;99.90
18189;DHT22;9219;50.396;8.546;2023-01-29T02:42:04;-0.20;99.90
18189;DHT22;9219;50.396;8.546;2023-01-29T02:44:39;-0.20;99.90
18189;DHT22;9219;50.396;8.546;2023-01-29T02:47:13;-0.10;99.90
18189;DHT22;9219;50.396;8.546;2023-01-29T02:49:47;0.20;99.90
18189;DHT22;9219;50.396;8.546;2023-01-29T02:54:57;0.30;99.90
18189;DHT22;9219;50.396;8.546;2023-01-29T02:57:30;0.10;99.90
18189;DHT22;9219;50.396;8.546;2023-01-29T03:00:02;0.00;99.90
18189;DHT22;9219;50.396;8.546;2023-01-29T03:02:36;-0.10;99.90
18189;DHT22;9219;50.396;8.546;2023-01-29T03:05:09;-0.10;99.90
18189;DHT22;9219;50.396;8.546;2023-01-29T03:07:42;0.00;99.90
18189;DHT22;9219;50.396;8.546;2023-01-29T03:16:12;0.20;99.90
18189;DHT22;9219;50.396;8.546;2023-01-29T03:18:43;0.50;99.90
18189;DHT22;9219;50.396;8.546;2023-01-29T03:21:18;0.40;99.90
18189;DHT22;9219;50.396;8.546;2023-01-29T03:24:05;0.40;99.90
18189;DHT22;9219;50.396;8.546;2023-01-29T03:26:53;0.40;99.90
18189;DHT22;9219;50.396;8.546;2023-01-29T03:29:39;0.20;99.90
18189;DHT22;9219;50.396;8.546;2023-01-29T03:37:33;0.00;99.90
18189;DHT22;9219;50.396;8.546;2023-01-29T03:40:04;-0.30;99.90
18189;DHT22;9219;50.396;8.546;2023-01-29T03:42:41;-0.30;99.90
18189;DHT22;9219;50.396;8.546;2023-01-29T03:45:15;-0.30;99.90
18189;DHT22;9219;50.396;8.546;2023-01-29T03:47:49;-0.20;99.90
18189;DHT22;9219;50.396;8.546;2023-01-29T03:50:30;-0.30;99.90
18189;DHT22;9219;50.396;8.546;2023-01-29T03:53:05;-0.30;99.90
18189;DHT22;9219;50.396;8.546;2023-01-29T03:58:34;-0.20;99.90
18189;DHT22;9219;50.396;8.546;2023-01-29T04:01:08;-0.20;99.90
18189;DHT22;9219;50.396;8.546;2023-01-29T04:03:38;0.00;99.90
18189;DHT22;9219;50.396;8.546;2023-01-29T04:06:08;0.00;99.90
18189;DHT22;9219;50.396;8.546;2023-01-29T04:08:44;-0.10;99.90
18189;DHT22;9219;50.396;8.546;2023-01-29T04:11:15;-0.20;99.90
18189;DHT22;9219;50.396;8.546;2023-01-29T04:13:45;-0.40;99.90
18189;DHT22;9219;50.396;8.546;2023-01-29T04:21:00;-0.60;99.90
18189;DHT22;9219;50.396;8.546;2023-01-29T04:23:28;-0.60;99.90
18189;DHT22;9219;50.396;8.546;2023-01-29T04:28:58;0.10;99.90
18189;DHT22;9219;50.396;8.546;2023-01-29T04:31:33;0.20;99.90
18189;DHT22;9219;50.396;8.546;2023-01-29T04:34:12;0.30;99.90
18189;DHT22;9219;50.396;8.546;2023-01-29T04:39:24;0.00;99.90
18189;DHT22;9219;50.396;8.546;2023-01-29T04:42:00;-0.20;99.90
18189;DHT22;9219;50.396;8.546;2023-01-29T04:44:35;-0.40;99.90
18189;DHT22;9219;50.396;8.546;2023-01-29T04:47:10;-0.50;99.90
18189;DHT22;9219;50.396;8.546;2023-01-29T04:49:44;-0.80;99.90
18189;DHT22;9219;50.396;8.546;2023-01-29T04:52:18;-1.00;99.90
18189;DHT22;9219;50.396;8.546;2023-01-29T05:00:31;-0.90;99.90
18189;DHT22;9219;50.396;8.546;2023-01-29T05:03:00;-0.90;99.90
18189;DHT22;9219;50.396;8.546;2023-01-29T05:05:28;-1.00;99.90
18189;DHT22;9219;50.396;8.546;2023-01-29T05:07:56;-0.70;99.90
18189;DHT22;9219;50.396;8.546;2023-01-29T05:10:25;-0.60;99.90
18189;DHT22;9219;50.396;8.546;2023-01-29T05:12:57;-0.50;99.90
18189;DHT22;9219;50.396;8.546;2023-01-29T05:15:29;-0.40;99.90
18189;DHT22;9219;50.396;8.546;2023-01-29T05:20:43;-0.50;99.90
18189;DHT22;9219;50.396;8.546;2023-01-29T05:23:15;-0.70;99.90
18189;DHT22;9219;50.396;8.546;2023-01-29T05:25:43;-0.40;99.90
18189;DHT22;9219;50.396;8.546;2023-01-29T05:28:12;-0.50;99.90
18189;DHT22;9219;50.396;8.546;2023-01-29T05:30:42;-0.50;99.90
18189;DHT22;9219;50.396;8.546;2023-01-29T05:33:12;-0.50;99.90
18189;DHT22;9219;50.396;8.546;2023-01-29T05:35:42;-0.50;99.90
18189;DHT22;9219;50.396;8.546;2023-01-29T05:42:00;-0.80;99.90
18189;DHT22;9219;50.396;8.546;2023-01-29T05:44:28;-0.90;99.90
18189;DHT22;9219;50.396;8.546;2023-01-29T05:46:56;-0.80;99.90
18189;DHT22;9219;50.396;8.546;2023-01-29T05:49:23;-1.20;99.90
18189;DHT22;9219;50.396;8.546;2023-01-29T05:51:50;-1.20;99.90
18189;DHT22;9219;50.396;8.546;2023-01-29T05:54:17;-1.20;99.90
18189;DHT22;9219;50.396;8.546;2023-01-29T05:56:46;-1.00;99.90
18189;DHT22;9219;50.396;8.546;2023-01-29T06:03:30;-1.20;99.90
18189;DHT22;9219;50.396;8.546;2023-01-29T06:06:03;-1.00;99.90
18189;DHT22;9219;50.396;8.546;2023-01-29T06:08:30;-0.90;99.90
18189;DHT22;9219;50.396;8.546;2023-01-29T06:10:58;-0.90;99.90
18189;DHT22;9219;50.396;8.546;2023-01-29T06:13:26;-0.90;99.90
18189;DHT22;9219;50.396;8.546;2023-01-29T06:15:53;-0.60;99.90
18189;DHT22;9219;50.396;8.546;2023-01-29T06:18:21;-0.60;99.90
18189;DHT22;9219;50.396;8.546;2023-01-29T06:23:28;-0.50;99.90
18189;DHT22;9219;50.396;8.546;2023-01-29T06:25:58;-0.40;99.90
18189;DHT22;9219;50.396;8.546;2023-01-29T06:28:26;-0.40;99.90
18189;DHT22;9219;50.396;8.546;2023-01-29T06:30:56;-0.60;99.90
18189;DHT22;9219;50.396;8.546;2023-01-29T06:33:42;-0.30;99.90
18189;DHT22;9219;50.396;8.546;2023-01-29T06:36:09;-0.30;99.90
18189;DHT22;9219;50.396;8.546;2023-01-29T06:38:37;-0.70;99.90
18189;DHT22;9219;50.396;8.546;2023-01-29T06:43:44;-0.50;99.90
18189;DHT22;9219;50.396;8.546;2023-01-29T06:46:12;-0.30;99.90
18189;DHT22;9219;50.396;8.546;2023-01-29T06:48:42;-0.40;99.90
18189;DHT22;9219;50.396;8.546;2023-01-29T06:51:10;-0.70;99.90
18189;DHT22;9219;50.396;8.546;2023-01-29T06:53:38;-0.50;99.90
18189;DHT22;9219;50.396;8.546;2023-01-29T06:56:06;-0.60;99.90
18189;DHT22;9219;50.396;8.546;2023-01-29T06:58:35;-0.60;99.90
18189;DHT22;9219;50.396;8.546;2023-01-29T07:05:02;-0.40;99.90
18189;DHT22;9219;50.396;8.546;2023-01-29T07:07:30;-0.20;99.90
18189;DHT22;9219;50.396;8.546;2023-01-29T07:09:57;-0.40;99.90
18189;DHT22;9219;50.396;8.546;2023-01-29T07:12:24;-0.40;99.90
18189;DHT22;9219;50.396;8.546;2023-01-29T07:14:53;-0.40;99.90
18189;DHT22;9219;50.396;8.546;2023-01-29T07:17:20;-0.70;99.90
18189;DHT22;9219;50.396;8.546;2023-01-29T07:19:47;-0.90;99.90
18189;DHT22;9219;50.396;8.546;2023-01-29T07:26:28;-0.90;99.90
18189;DHT22;9219;50.396;8.546;2023-01-29T07:28:56;-0.70;99.90
18189;DHT22;9219;50.396;8.546;2023-01-29T07:31:23;-0.50;99.90
18189;DHT22;9219;50.396;8.546;2023-01-29T07:33:50;-0.40;99.90
18189;DHT22;9219;50.396;8.546;2023-01-29T07:36:18;-0.60;99.90
18189;DHT22;9219;50.396;8.546;2023-01-29T07:38:48;-0.60;99.90
18189;DHT22;9219;50.396;8.546;2023-01-29T07:41:15;-0.30;99.90
18189;DHT22;9219;50.396;8.546;2023-01-29T07:48:12;-0.50;99.90
18189;DHT22;9219;50.396;8.546;2023-01-29T07:50:40;-0.80;99.90
18189;DHT22;9219;50.396;8.546;2023-01-29T07:53:11;-1.10;99.90
18189;DHT22;9219;50.396;8.546;2023-01-29T07:55:40;-1.10;99.90
18189;DHT22;9219;50.396;8.546;2023-01-29T07:58:09;-0.90;99.90
18189;DHT22;9219;50.396;8.546;2023-01-29T08:00:38;-1.30;99.90
18189;DHT22;9219;50.396;8.546;2023-01-29T08:03:09;-1.40;99.90
18189;DHT22;9219;50.396;8.546;2023-01-29T08:08:18;-1.40;99.90
18189;DHT22;9219;50.396;8.546;2023-01-29T08:10:45;-1.60;99.90
18189;DHT22;9219;50.396;8.546;2023-01-29T08:13:14;-1.30;99.90
18189;DHT22;9219;50.396;8.546;2023-01-29T08:15:42;-0.90;99.90
18189;DHT22;9219;50.396;8.546;2023-01-29T08:18:11;-0.70;99.90
18189;DHT22;9219;50.396;8.546;2023-01-29T08:20:39;-1.20;99.90
18189;DHT22;9219;50.396;8.546;2023-01-29T08:23:13;-1.30;99.90
18189;DHT22;9219;50.396;8.546;2023-01-29T08:30:27;-0.90;99.90
18189;DHT22;9219;50.396;8.546;2023-01-29T08:32:55;-1.30;99.90
18189;DHT22;9219;50.396;8.546;2023-01-29T08:35:59;-1.80;99.90
18189;DHT22;9219;50.396;8.546;2023-01-29T08:38:30;-1.80;99.90
18189;DHT22;9219;50.396;8.546;2023-01-29T08:40:57;-1.50;99.90
18189;DHT22;9219;50.396;8.546;2023-01-29T08:43:26;-1.60;99.90
18189;DHT22;9219;50.396;8.546;2023-01-29T08:46:00;-1.40;99.90
18189;DHT22;9219;50.396;8.546;2023-01-29T08:48:29;-1.60;99.90
18189;DHT22;9219;50.396;8.546;2023-01-29T08:56:58;-1.80;99.90
18189;DHT22;9219;50.396;8.546;2023-01-29T08:59:25;-2.00;99.90
18189;DHT22;9219;50.396;8.546;2023-01-29T09:01:53;-1.80;99.90
18189;DHT22;9219;50.396;8.546;2023-01-29T09:04:21;-1.30;99.90
18189;DHT22;9219;50.396;8.546;2023-01-29T09:06:50;-1.30;99.90
18189;DHT22;9219;50.396;8.546;2023-01-29T09:09:19;-1.50;99.90
18189;DHT22;9219;50.396;8.546;2023-01-29T09:11:50;-1.60;99.90
18189;DHT22;9219;50.396;8.546;2023-01-29T09:18:47;-1.70;99.90
18189;DHT22;9219;50.396;8.546;2023-01-29T09:21:15;-1.50;99.90
18189;DHT22;9219;50.396;8.546;2023-01-29T09:23:43;-1.80;99.90
18189;DHT22;9219;50.396;8.546;2023-01-29T09:26:10;-1.70;99.90
18189;DHT22;9219;50.396;8.546;2023-01-29T09:28:37;-1.60;99.90
18189;DHT22;9219;50.396;8.546;2023-01-29T09:31:05;-1.30;99.90
18189;DHT22;9219;50.396;8.546;2023-01-29T09:33:33;-0.90;99.90
18189;DHT22;9219;50.396;8.546;2023-01-29T09:40:23;-1.30;99.90
18189;DHT22;9219;50.396;8.546;2023-01-29T09:42:55;-1.00;99.90
18189;DHT22;9219;50.396;8.546;2023-01-29T09:45:25;-1.00;99.90
18189;DHT22;9219;50.396;8.546;2023-01-29T09:47:57;-1.20;99.90
18189;DHT22;9219;50.396;8.546;2023-01-29T09:50:29;-1.00;99.90
18189;DHT22;9219;50.396;8.546;2023-01-29T09:53:01;-0.50;99.90
18189;DHT22;9219;50.396;8.546;2023-01-29T09:58:17;-0.20;99.90
18189;DHT22;9219;50.396;8.546;2023-01-29T10:00:52;-0.60;99.90
18189;DHT22;9219;50.396;8.546;2023-01-29T10:03:39;-0.50;99.90
18189;DHT22;9219;50.396;8.546;2023-01-29T10:06:24;-0.30;99.90
18189;DHT22;9219;50.396;8.546;2023-01-29T10:12:10;0.00;99.90
18189;DHT22;9219;50.396;8.546;2023-01-29T10:24:45;-0.60;99.90
18189;DHT22;9219;50.396;8.546;2023-01-29T10:27:17;-1.10;99.90
18189;DHT22;9219;50.396;8.546;2023-01-29T10:29:47;-1.00;99.90
18189;DHT22;9219;50.396;8.546;2023-01-29T10:32:18;-0.50;99.90
18189;DHT22;9219;50.396;8.546;2023-01-29T10:34:50;-0.10;99.90
18189;DHT22;9219;50.396;8.546;2023-01-29T10:42:21;0.50;99.90
18189;DHT22;9219;50.396;8.546;2023-01-29T10:45:11;-0.10;99.90
18189;DHT22;9219;50.396;8.546;2023-01-29T10:48:00;0.40;99.90
18189;DHT22;9219;50.396;8.546;2023-01-29T10:50:45;0.00;99.90
18189;DHT22;9219;50.396;8.546;2023-01-29T10:53:41;0.10;99.90
18189;DHT22;9219;50.396;8.546;2023-01-29T10:56:26;0.10;99.90
18189;DHT22;9219;50.396;8.546;2023-01-29T11:04:02;0.20;99.90
18189;DHT22;9219;50.396;8.546;2023-01-29T11:06:32;0.10;99.90
18189;DHT22;9219;50.396;8.546;2023-01-29T11:09:04;0.20;99.90
18189;DHT22;9219;50.396;8.546;2023-01-29T11:11:40;0.00;99.90
18189;DHT22;9219;50.396;8.546;2023-01-29T11:14:13;-0.20;99.90
18189;DHT22;9219;50.396;8.546;2023-01-29T11:16:43;-0.20;99.90
18189;DHT22;9219;50.396;8.546;2023-01-29T11:19:14;-0.40;99.90
18189;DHT22;9219;50.396;8.546;2023-01-29T11:26:21;-0.10;99.90
18189;DHT22;9219;50.396;8.546;2023-01-29T11:28:50;0.40;99.90
18189;DHT22;9219;50.396;8.546;2023-01-29T11:31:21;0.60;99.90
18189;DHT22;9219;50.396;8.546;2023-01-29T11:34:02;1.00;99.90
18189;DHT22;9219;50.396;8.546;2023-01-29T11:36:33;1.00;99.90
18189;DHT22;9219;50.396;8.546;2023-01-29T11:39:15;0.60;99.90
18189;DHT22;9219;50.396;8.546;2023-01-29T11:46:49;0.70;99.90
18189;DHT22;9219;50.396;8.546;2023-01-29T11:49:29;0.10;99.90
18189;DHT22;9219;50.396;8.546;2023-01-29T11:52:01;0.20;99.90
18189;DHT22;9219;50.396;8.546;2023-01-29T11:54:34;0.30;99.90
18189;DHT22;9219;50.396;8.546;2023-01-29T11:57:03;0.40;99.90
18189;DHT22;9219;50.396;8.546;2023-01-29T11:59:39;0.60;99.90
18189;DHT22;9219;50.396;8.546;2023-01-29T12:09:54;0.20;99.90
18189;DHT22;9219;50.396;8.546;2023-01-29T12:12:36;0.50;99.90
18189;DHT22;9219;50.396;8.546;2023-01-29T12:15:18;0.60;99.90
18189;DHT22;9219;50.396;8.546;2023-01-29T12:18:03;0.70;99.90
18189;DHT22;9219;50.396;8.546;2023-01-29T12:20:36;0.40;99.90
18189;DHT22;9219;50.396;8.546;2023-01-29T12:23:20;0.30;99.90
18189;DHT22;9219;50.396;8.546;2023-01-29T12:28:46;-0.10;99.90
18189;DHT22;9219;50.396;8.546;2023-01-29T12:31:27;0.40;99.90
18189;DHT22;9219;50.396;8.546;2023-01-29T12:34:03;0.70;99.90
18189;DHT22;9219;50.396;8.546;2023-01-29T12:36:45;0.90;99.90
18189;DHT22;9219;50.396;8.546;2023-01-29T12:39:26;1.00;99.90
18189;DHT22;9219;50.396;8.546;2023-01-29T12:41:58;1.00;99.90
18189;DHT22;9219;50.396;8.546;2023-01-29T12:49:32;1.30;99.90
18189;DHT22;9219;50.396;8.546;2023-01-29T12:52:08;1.50;99.90
18189;DHT22;9219;50.396;8.546;2023-01-29T12:54:45;1.40;99.90
18189;DHT22;9219;50.396;8.546;2023-01-29T12:57:22;1.60;99.90
18189;DHT22;9219;50.396;8.546;2023-01-29T12:59:57;1.60;99.90
18189;DHT22;9219;50.396;8.546;2023-01-29T13:02:33;1.80;99.90
18189;DHT22;9219;50.396;8.546;2023-01-29T13:10:36;1.90;99.90
18189;DHT22;9219;50.396;8.546;2023-01-29T13:13:14;2.30;99.90
18189;DHT22;9219;50.396;8.546;2023-01-29T13:15:47;2.20;99.90
18189;DHT22;9219;50.396;8.546;2023-01-29T13:18:46;2.00;99.90
18189;DHT22;9219;50.396;8.546;2023-01-29T13:21:18;1.80;99.90
18189;DHT22;9219;50.396;8.546;2023-01-29T13:23:49;1.90;99.90
18189;DHT22;9219;50.396;8.546;2023-01-29T13:31:37;1.90;99.90
18189;DHT22;9219;50.396;8.546;2023-01-29T13:34:14;2.30;99.90
18189;DHT22;9219;50.396;8.546;2023-01-29T13:36:45;2.10;99.90
18189;DHT22;9219;50.396;8.546;2023-01-29T13:39:21;2.10;99.90
18189;DHT22;9219;50.396;8.546;2023-01-29T13:41:52;1.90;99.90
18189;DHT22;9219;50.396;8.546;2023-01-29T13:44:23;1.50;99.90
18189;DHT22;9219;50.396;8.546;2023-01-29T13:46:56;1.30;99.90
18189;DHT22;9219;50.396;8.546;2023-01-29T13:54:29;1.20;99.90
18189;DHT22;9219;50.396;8.546;2023-01-29T13:56:59;1.90;99.90
18189;DHT22;9219;50.396;8.546;2023-01-29T13:59:50;1.50;99.90
18189;DHT22;9219;50.396;8.546;2023-01-29T14:02:22;1.30;99.90
18189;DHT22;9219;50.396;8.546;2023-01-29T14:04:50;1.30;99.90
18189;DHT22;9219;50.396;8.546;2023-01-29T14:07:48;1.50;99.90
18189;DHT22;9219;50.396;8.546;2023-01-29T14:16:33;1.80;99.90
18189;DHT22;9219;50.396;8.546;2023-01-29T14:19:03;1.90;99.90
18189;DHT22;9219;50.396;8.546;2023-01-29T14:21:33;1.90;99.90
18189;DHT22;9219;50.396;8.546;2023-01-29T14:24:10;2.00;99.90
18189;DHT22;9219;50.396;8.546;2023-01-29T14:26:46;1.70;99.90
18189;DHT22;9219;50.396;8.546;2023-01-29T14:29:18;1.70;99.90
18189;DHT22;9219;50.396;8.546;2023-01-29T14:32:11;1.50;99.90
18189;DHT22;9219;50.396;8.546;2023-01-29T14:37:55;1.40;99.90
18189;DHT22;9219;50.396;8.546;2023-01-29T14:40:29;1.60;99.90
18189;DHT22;9219;50.396;8.546;2023-01-29T14:43:05;1.80;99.90
18189;DHT22;9219;50.396;8.546;2023-01-29T14:45:49;2.30;99.90
18189;DHT22;9219;50.396;8.546;2023-01-29T14:48:36;2.30;99.90
18189;DHT22;9219;50.396;8.546;2023-01-29T14:51:09;2.30;99.90
18189;DHT22;9219;50.396;8.546;2023-01-29T14:54:16;2.40;99.90
18189;DHT22;9219;50.396;8.546;2023-01-29T15:01:53;2.30;99.90
18189;DHT22;9219;50.396;8.546;2023-01-29T15:04:26;2.20;99.90
18189;DHT22;9219;50.396;8.546;2023-01-29T15:07:00;2.40;99.90
18189;DHT22;9219;50.396;8.546;2023-01-29T15:09:37;2.30;99.90
18189;DHT22;9219;50.396;8.546;2023-01-29T15:12:16;2.20;99.90
18189;DHT22;9219;50.396;8.546;2023-01-29T15:14:55;2.20;99.90
18189;DHT22;9219;50.396;8.546;2023-01-29T15:17:33;2.10;99.90
18189;DHT22;9219;50.396;8.546;2023-01-29T15:25:25;1.80;99.90
18189;DHT22;9219;50.396;8.546;2023-01-29T15:27:56;1.90;99.90
18189;DHT22;9219;50.396;8.546;2023-01-29T15:30:32;2.10;99.90
18189;DHT22;9219;50.396;8.546;2023-01-29T15:33:01;2.20;99.90
18189;DHT22;9219;50.396;8.546;2023-01-29T15:35:35;2.30;99.90
18189;DHT22;9219;50.396;8.546;2023-01-29T15:38:12;2.10;99.90
18189;DHT22;9219;50.396;8.546;2023-01-29T15:40:51;2.10;99.90
18189;DHT22;9219;50.396;8.546;2023-01-29T15:48:26;2.60;99.90
18189;DHT22;9219;50.396;8.546;2023-01-29T15:50:59;2.40;99.90
18189;DHT22;9219;50.396;8.546;2023-01-29T15:53:35;2.20;99.90
18189;DHT22;9219;50.396;8.546;2023-01-29T15:56:08;2.10;99.90
18189;DHT22;9219;50.396;8.546;2023-01-29T15:58:37;2.10;99.90
18189;DHT22;9219;50.396;8.546;2023-01-29T16:01:05;1.60;99.90
18189;DHT22;9219;50.396;8.546;2023-01-29T16:03:35;1.50;99.90
18189;DHT22;9219;50.396;8.546;2023-01-29T16:11:11;1.40;99.90
18189;DHT22;9219;50.396;8.546;2023-01-29T16:13:41;1.30;99.90
18189;DHT22;9219;50.396;8.546;2023-01-29T16:16:21;1.40;99.90
18189;DHT22;9219;50.396;8.546;2023-01-29T16:18:52;1.10;99.90
18189;DHT22;9219;50.396;8.546;2023-01-29T16:21:29;1.30;99.90
18189;DHT22;9219;50.396;8.546;2023-01-29T16:24:01;1.30;99.90
18189;DHT22;9219;50.396;8.546;2023-01-29T16:32:08;0.90;99.90
18189;DHT22;9219;50.396;8.546;2023-01-29T16:34:41;0.50;99.90
18189;DHT22;9219;50.396;8.546;2023-01-29T16:37:20;0.30;99.90
18189;DHT22;9219;50.396;8.546;2023-01-29T16:39:49;-0.10;99.90
18189;DHT22;9219;50.396;8.546;2023-01-29T16:42:22;-0.10;99.90
18189;DHT22;9219;50.396;8.546;2023-01-29T16:44:54;-0.10;99.90
18189;DHT22;9219;50.396;8.546;2023-01-29T16:47:28;-0.10;99.90
18189;DHT22;9219;50.396;8.546;2023-01-29T16:55:13;0.00;99.90
18189;DHT22;9219;50.396;8.546;2023-01-29T16:57:43;0.10;99.90
18189;DHT22;9219;50.396;8.546;2023-01-29T17:00:19;0.00;99.90
18189;DHT22;9219;50.396;8.546;2023-01-29T17:02:50;-0.10;99.90
18189;DHT22;9219;50.396;8.546;2023-01-29T17:05:25;0.00;99.90
18189;DHT22;9219;50.396;8.546;2023-01-29T17:07:56;0.20;99.90
18189;DHT22;9219;50.396;8.546;2023-01-29T17:13:42;0.40;99.90
18189;DHT22;9219;50.396;8.546;2023-01-29T17:16:21;0.20;99.90
18189;DHT22;9219;50.396;8.546;2023-01-29T17:18:49;0.10;99.90
18189;DHT22;9219;50.396;8.546;2023-01-29T17:21:17;0.00;99.90
18189;DHT22;9219;50.396;8.546;2023-01-29T17:23:46;0.20;99.90
18189;DHT22;9219;50.396;8.546;2023-01-29T17:26:17;0.20;99.90
18189;DHT22;9219;50.396;8.546;2023-01-29T17:28:51;0.10;99.90
18189;DHT22;9219;50.396;8.546;2023-01-29T17:35:53;0.80;99.90
18189;DHT22;9219;50.396;8.546;2023-01-29T17:38:22;0.80;99.90
18189;DHT22;9219;50.396;8.546;2023-01-29T17:40:56;0.70;99.90
18189;DHT22;9219;50.396;8.546;2023-01-29T17:43:28;0.90;99.90
18189;DHT22;9219;50.396;8.546;2023-01-29T17:45:57;0.80;99.90
18189;DHT22;9219;50.396;8.546;2023-01-29T17:48:28;0.80;99.90
18189;DHT22;9219;50.396;8.546;2023-01-29T17:51:02;0.50;99.90
18189;DHT22;9219;50.396;8.546;2023-01-29T17:58:38;0.30;99.90
18189;DHT22;9219;50.396;8.546;2023-01-29T18:01:14;0.30;99.90
18189;DHT22;9219;50.396;8.546;2023-01-29T18:03:45;0.20;99.90
18189;DHT22;9219;50.396;8.546;2023-01-29T18:06:21;0.00;99.90
18189;DHT22;9219;50.396;8.546;2023-01-29T18:08:53;0.20;99.90
18189;DHT22;9219;50.396;8.546;2023-01-29T18:11:23;0.20;99.90
18189;DHT22;9219;50.396;8.546;2023-01-29T18:13:53;0.10;99.90
18189;DHT22;9219;50.396;8.546;2023-01-29T18:19:04;0.20;99.90
18189;DHT22;9219;50.396;8.546;2023-01-29T18:21:41;0.20;99.90
18189;DHT22;9219;50.396;8.546;2023-01-29T18:24:11;0.20;99.90
18189;DHT22;9219;50.396;8.546;2023-01-29T18:26:44;0.30;99.90
18189;DHT22;9219;50.396;8.546;2023-01-29T18:29:15;0.20;99.90
18189;DHT22;9219;50.396;8.546;2023-01-29T18:31:47;0.20;99.90
18189;DHT22;9219;50.396;8.546;2023-01-29T18:34:22;0.20;99.90
18189;DHT22;9219;50.396;8.546;2023-01-29T18:36:55;0.20;99.90
18189;DHT22;9219;50.396;8.546;2023-01-29T18:45:18;0.00;99.90
18189;DHT22;9219;50.396;8.546;2023-01-29T18:47:48;0.10;99.90
18189;DHT22;9219;50.396;8.546;2023-01-29T18:50:18;0.10;99.90
18189;DHT22;9219;50.396;8.546;2023-01-29T18:52:52;0.10;99.90
18189;DHT22;9219;50.396;8.546;2023-01-29T18:55:27;0.00;99.90
18189;DHT22;9219;50.396;8.546;2023-01-29T18:58:01;0.00;99.90
18189;DHT22;9219;50.396;8.546;2023-01-29T19:00:57;0.00;99.90
18189;DHT22;9219;50.396;8.546;2023-01-29T19:06:31;-0.10;99.90
18189;DHT22;9219;50.396;8.546;2023-01-29T19:08:59;0.10;99.90
18189;DHT22;9219;50.396;8.546;2023-01-29T19:11:27;0.10;99.90
18189;DHT22;9219;50.396;8.546;2023-01-29T19:13:56;0.00;99.90
18189;DHT22;9219;50.396;8.546;2023-01-29T19:16:25;0.00;99.90
18189;DHT22;9219;50.396;8.546;2023-01-29T19:18:58;0.10;99.90
18189;DHT22;9219;50.396;8.546;2023-01-29T19:21:29;0.20;99.90
18189;DHT22;9219;50.396;8.546;2023-01-29T19:24:04;0.20;99.90
18189;DHT22;9219;50.396;8.546;2023-01-29T19:29:18;0.30;99.90
18189;DHT22;9219;50.396;8.546;2023-01-29T19:31:46;0.30;99.90
18189;DHT22;9219;50.396;8.546;2023-01-29T19:34:15;0.30;99.90
18189;DHT22;9219;50.396;8.546;2023-01-29T19:36:46;0.30;99.90
18189;DHT22;9219;50.396;8.546;2023-01-29T19:39:15;0.30;99.90
18189;DHT22;9219;50.396;8.546;2023-01-29T19:41:43;-0.10;99.90
18189;DHT22;9219;50.396;8.546;2023-01-29T19:44:14;-0.30;99.90
18189;DHT22;9219;50.396;8.546;2023-01-29T19:49:22;-0.70;99.90
18189;DHT22;9219;50.396;8.546;2023-01-29T19:51:50;-0.60;99.90
18189;DHT22;9219;50.396;8.546;2023-01-29T19:54:19;-0.70;99.90
18189;DHT22;9219;50.396;8.546;2023-01-29T19:56:48;-0.90;99.90
18189;DHT22;9219;50.396;8.546;2023-01-29T19:59:16;-0.70;99.90
18189;DHT22;9219;50.396;8.546;2023-01-29T20:01:44;-0.80;99.90
18189;DHT22;9219;50.396;8.546;2023-01-29T20:04:11;-0.60;99.90
18189;DHT22;9219;50.396;8.546;2023-01-29T20:11:45;-0.90;99.90
18189;DHT22;9219;50.396;8.546;2023-01-29T20:14:14;-1.10;99.90
18189;DHT22;9219;50.396;8.546;2023-01-29T20:16:43;-1.10;99.90
18189;DHT22;9219;50.396;8.546;2023-01-29T20:19:11;-0.90;99.90
18189;DHT22;9219;50.396;8.546;2023-01-29T20:21:47;-0.70;99.90
18189;DHT22;9219;50.396;8.546;2023-01-29T20:24:18;-1.00;99.90
18189;DHT22;9219;50.396;8.546;2023-01-29T20:26:48;-1.20;99.90
18189;DHT22;9219;50.396;8.546;2023-01-29T20:34:20;-0.80;99.90
18189;DHT22;9219;50.396;8.546;2023-01-29T20:36:47;-0.40;99.90
18189;DHT22;9219;50.396;8.546;2023-01-29T20:39:16;-0.40;99.90
18189;DHT22;9219;50.396;8.546;2023-01-29T20:41:44;-0.30;99.90
18189;DHT22;9219;50.396;8.546;2023-01-29T20:44:14;-0.20;99.90
18189;DHT22;9219;50.396;8.546;2023-01-29T20:46:42;-0.20;99.90
18189;DHT22;9219;50.396;8.546;2023-01-29T20:49:10;-0.20;99.90
18189;DHT22;9219;50.396;8.546;2023-01-29T20:56:43;0.10;99.90
18189;DHT22;9219;50.396;8.546;2023-01-29T20:59:13;0.20;99.90
18189;DHT22;9219;50.396;8.546;2023-01-29T21:01:44;0.10;99.90